createdAt,value
2023-02-23T00:00:28.504Z,100074.97
2023-02-23T00:02:56.104Z,100065.31
2023-02-23T00:05:22.462Z,100069.19
2023-02-23T00:07:48.769Z,100067.09
2023-02-23T00:10:15.096Z,100058.94
2023-02-23T00:12:41.450Z,100064.16
2023-02-23T00:15:07.786Z,100068.91
2023-02-23T00:17:36.706Z,100062.22
2023-02-23T00:20:07.705Z,100058.44
2023-02-23T00:22:34.035Z,100054.97
2023-02-23T00:25:00.781Z,100057.56
2023-02-23T00:27:27.646Z,100049.88
2023-02-23T00:29:54.008Z,100057.84
2023-02-23T00:32:20.864Z,100049.59
2023-02-23T00:34:49.953Z,100056.56
2023-02-23T00:37:16.285Z,100059.16
2023-02-23T00:39:42.652Z,100056.91
2023-02-23T00:42:08.997Z,100058.19
2023-02-23T00:44:35.370Z,100050.19
2023-02-23T00:47:01.685Z,100056.06
2023-02-23T00:49:28.029Z,100056.06
2023-02-23T00:51:54.346Z,100054.72
2023-02-23T00:54:20.655Z,100065.00
2023-02-23T00:56:47.124Z,100058.66
2023-02-23T00:59:13.463Z,100063.47
2023-02-23T01:01:41.812Z,100064.81
2023-02-23T01:04:08.343Z,100066.16
2023-02-23T01:06:34.657Z,100056.88
2023-02-23T01:09:05.384Z,100061.28
2023-02-23T01:11:31.707Z,100061.50
2023-02-23T01:13:58.145Z,100054.69
2023-02-23T01:16:28.094Z,100059.62
2023-02-23T01:18:54.407Z,100049.47
2023-02-23T01:21:20.828Z,100053.09
2023-02-23T01:23:47.201Z,100044.31
2023-02-23T01:26:13.644Z,100050.00
2023-02-23T01:28:39.974Z,100048.03
2023-02-23T01:31:06.377Z,100046.25
2023-02-23T01:33:32.772Z,100047.88
2023-02-23T01:35:59.085Z,100040.69
2023-02-23T01:38:25.419Z,100050.84
2023-02-23T01:40:51.770Z,100039.38
2023-02-23T01:43:18.090Z,100037.13
2023-02-23T01:45:44.446Z,100038.22
2023-02-23T01:48:12.605Z,100032.03
2023-02-23T01:50:38.959Z,100032.38
2023-02-23T01:53:05.281Z,100032.84
2023-02-23T01:55:31.641Z,100015.53
2023-02-23T01:57:59.618Z,100022.38
2023-02-23T02:00:26.433Z,100022.69
2023-02-23T02:02:52.760Z,100017.97
2023-02-23T02:05:19.111Z,100011.91
2023-02-23T02:07:45.459Z,100002.44
2023-02-23T02:10:11.789Z,100005.69
2023-02-23T02:12:38.941Z,100013.37
2023-02-23T02:15:05.314Z,100003.06
2023-02-23T02:17:31.661Z,99988.81
2023-02-23T02:19:58.001Z,99999.13
2023-02-23T02:22:25.752Z,100004.84
2023-02-23T02:24:52.557Z,99996.34
2023-02-23T02:27:19.381Z,99998.12
2023-02-23T02:29:45.702Z,99997.16
2023-02-23T02:32:12.097Z,99997.97
2023-02-23T02:34:38.425Z,99995.19
2023-02-23T02:37:04.729Z,99991.25
2023-02-23T02:39:37.165Z,99987.84
2023-02-23T02:42:03.543Z,99987.66
2023-02-23T02:44:29.840Z,99987.50
2023-02-23T02:46:57.528Z,99987.84
2023-02-23T02:49:23.883Z,99993.53
2023-02-23T02:51:50.255Z,99997.59
2023-02-23T02:54:16.558Z,99998.91
2023-02-23T02:56:42.884Z,100001.59
2023-02-23T02:59:28.186Z,100004.06
2023-02-23T03:02:13.428Z,100004.53
2023-02-23T03:04:58.607Z,99995.56
2023-02-23T03:07:43.841Z,99996.88
2023-02-23T03:10:28.723Z,99989.69
2023-02-23T03:13:13.661Z,99980.38
2023-02-23T03:15:58.779Z,99975.75
2023-02-23T03:18:43.672Z,99970.72
2023-02-23T03:21:28.532Z,99963.50
2023-02-23T03:24:13.567Z,99969.87
2023-02-23T03:26:58.426Z,99968.59
2023-02-23T03:29:43.455Z,99973.62
2023-02-23T03:32:28.480Z,99975.28
2023-02-23T03:35:13.778Z,99972.19
2023-02-23T03:37:58.657Z,99970.37
2023-02-23T03:40:43.631Z,99969.25
2023-02-23T03:43:28.549Z,99973.50
2023-02-23T03:46:13.451Z,99978.06
2023-02-23T03:48:58.728Z,99971.03
2023-02-23T03:51:43.687Z,99974.12
2023-02-23T03:54:28.763Z,99973.81
2023-02-23T03:57:13.616Z,99966.62
2023-02-23T03:59:58.862Z,99964.19
2023-02-23T04:02:43.676Z,99973.97
2023-02-23T04:05:28.792Z,99970.37
2023-02-23T04:08:13.718Z,99977.38
2023-02-23T04:10:58.757Z,99985.09
2023-02-23T04:13:25.075Z,99990.84
2023-02-23T04:15:51.428Z,99986.41
2023-02-23T04:18:17.762Z,99991.63
2023-02-23T04:20:44.105Z,99994.56
2023-02-23T04:23:10.473Z,100000.28
2023-02-23T04:25:36.784Z,100000.13
2023-02-23T04:28:03.679Z,99997.19
2023-02-23T04:30:30.510Z,99999.47
2023-02-23T04:32:56.884Z,99996.03
2023-02-23T04:35:23.460Z,99987.84
2023-02-23T04:37:49.784Z,99984.06
2023-02-23T04:40:16.099Z,99990.09
2023-02-23T04:42:42.489Z,99993.87
2023-02-23T04:45:08.812Z,99992.75
2023-02-23T04:47:35.136Z,99992.44
2023-02-23T04:50:01.491Z,99992.59
2023-02-23T04:52:27.810Z,99979.19
2023-02-23T04:54:54.146Z,99982.62
2023-02-23T04:57:20.458Z,99984.72
2023-02-23T04:59:46.811Z,99983.25
2023-02-23T05:02:13.170Z,99989.97
2023-02-23T05:04:39.505Z,99983.91
2023-02-23T05:07:05.824Z,99982.47
2023-02-23T05:09:32.391Z,99980.97
2023-02-23T05:11:58.725Z,99991.25
2023-02-23T05:14:25.183Z,99980.84
2023-02-23T05:16:51.520Z,99985.72
2023-02-23T05:19:18.297Z,99983.63
2023-02-23T05:21:44.872Z,99976.75
2023-02-23T05:24:11.176Z,99988.50
2023-02-23T05:26:37.477Z,99984.28
2023-02-23T05:29:04.079Z,99980.84
2023-02-23T05:31:30.538Z,99989.19
2023-02-23T05:33:56.928Z,99985.78
2023-02-23T05:36:23.258Z,99989.53
2023-02-23T05:38:49.563Z,99996.22
2023-02-23T05:41:15.883Z,99988.06
2023-02-23T05:43:42.311Z,99982.16
2023-02-23T05:46:08.680Z,99988.41
2023-02-23T05:48:35.113Z,99987.78
2023-02-23T05:51:01.428Z,99991.34
2023-02-23T05:53:28.340Z,99993.81
2023-02-23T05:55:54.791Z,99992.00
2023-02-23T05:58:21.143Z,99985.66
2023-02-23T06:00:47.451Z,99992.22
2023-02-23T06:03:14.509Z,99998.56
2023-02-23T06:05:41.594Z,100002.66
2023-02-23T06:08:07.914Z,100002.97
2023-02-23T06:10:34.225Z,100002.00
2023-02-23T06:13:00.555Z,100008.03
2023-02-23T06:15:29.060Z,100006.75
2023-02-23T06:17:56.491Z,100020.28
2023-02-23T06:20:22.929Z,100017.34
2023-02-23T06:22:49.248Z,100018.50
2023-02-23T06:25:15.580Z,100009.81
2023-02-23T06:27:42.376Z,100013.41
2023-02-23T06:30:08.699Z,100020.28
2023-02-23T06:32:35.056Z,100022.25
2023-02-23T06:35:01.805Z,100021.56
2023-02-23T06:37:28.120Z,100022.06
2023-02-23T06:39:54.423Z,100039.72
2023-02-23T06:42:20.740Z,100034.97
2023-02-23T06:44:47.060Z,100034.16
2023-02-23T06:47:13.462Z,100041.00
2023-02-23T06:49:40.676Z,100034.28
2023-02-23T06:52:07.038Z,100034.81
2023-02-23T06:54:34.373Z,100030.72
2023-02-23T06:57:00.678Z,100033.00
2023-02-23T06:59:27.015Z,100046.72
2023-02-23T07:01:53.363Z,100042.62
2023-02-23T07:04:19.789Z,100044.88
2023-02-23T07:06:46.155Z,100051.13
2023-02-23T07:09:12.501Z,100044.88
2023-02-23T07:11:38.866Z,100040.81
2023-02-23T07:14:05.216Z,100041.28
2023-02-23T07:16:32.418Z,100035.41
2023-02-23T07:18:58.759Z,100037.03
2023-02-23T07:21:25.165Z,100039.12
2023-02-23T07:23:51.523Z,100039.47
2023-02-23T07:26:18.557Z,100039.25
2023-02-23T07:28:44.908Z,100034.66
2023-02-23T07:31:11.307Z,100037.63
2023-02-23T07:33:37.735Z,100029.91
2023-02-23T07:36:04.079Z,100038.53
2023-02-23T07:38:30.500Z,100034.75
2023-02-23T07:40:56.833Z,100041.09
2023-02-23T07:43:23.595Z,100042.25
2023-02-23T07:45:51.118Z,100049.59
2023-02-23T07:48:17.452Z,100045.06
2023-02-23T07:50:43.890Z,100049.41
2023-02-23T07:53:10.358Z,100056.81
2023-02-23T07:55:38.570Z,100049.78
2023-02-23T07:58:05.953Z,100053.78
2023-02-23T08:00:33.157Z,100056.88
2023-02-23T08:02:59.531Z,100052.75
2023-02-23T08:05:28.956Z,100051.56
2023-02-23T08:07:56.020Z,100057.84
2023-02-23T08:10:22.394Z,100057.19
2023-02-23T08:12:48.755Z,100057.22
2023-02-23T08:15:15.206Z,100053.50
2023-02-23T08:17:41.568Z,100060.47
2023-02-23T08:20:07.937Z,100060.28
2023-02-23T08:22:48.431Z,100054.66
2023-02-23T08:25:15.887Z,100059.59
2023-02-23T08:27:42.520Z,100063.78
2023-02-23T08:30:09.940Z,100046.84
2023-02-23T08:32:36.305Z,100052.62
2023-02-23T08:35:05.810Z,100048.97
2023-02-23T08:37:32.404Z,100052.62
2023-02-23T08:39:59.347Z,100058.44
2023-02-23T08:42:25.680Z,100051.88
2023-02-23T08:44:52.001Z,100038.56
2023-02-23T08:47:22.008Z,100049.16
2023-02-23T08:49:48.339Z,100048.22
2023-02-23T08:52:14.718Z,100054.34
2023-02-23T08:54:41.015Z,100057.16
2023-02-23T08:57:07.342Z,100048.56
2023-02-23T08:59:33.642Z,100051.09
2023-02-23T09:01:59.986Z,100054.72
2023-02-23T09:04:26.409Z,100052.12
2023-02-23T09:06:52.765Z,100055.50
2023-02-23T09:09:19.137Z,100044.25
2023-02-23T09:11:45.505Z,100051.91
2023-02-23T09:14:11.815Z,100051.91
2023-02-23T09:16:38.114Z,100047.50
2023-02-23T09:19:04.500Z,100053.41
2023-02-23T09:21:34.382Z,100053.53
2023-02-23T09:24:01.413Z,100054.81
2023-02-23T09:26:29.414Z,100054.34
2023-02-23T09:28:55.879Z,100061.69
2023-02-23T09:31:22.779Z,100055.16
2023-02-23T09:33:49.454Z,100056.31
2023-02-23T09:36:16.410Z,100049.22
2023-02-23T09:38:42.808Z,100055.50
2023-02-23T09:41:09.119Z,100042.53
2023-02-23T09:43:35.460Z,100049.72
2023-02-23T09:46:01.800Z,100054.66
2023-02-23T09:48:28.137Z,100046.59
2023-02-23T09:50:55.146Z,100054.41
2023-02-23T09:53:21.546Z,100052.28
2023-02-23T09:55:47.915Z,100051.88
2023-02-23T09:58:14.239Z,100051.41
2023-02-23T10:00:40.558Z,100058.72
2023-02-23T10:03:06.895Z,100050.16
2023-02-23T10:05:34.198Z,100045.00
2023-02-23T10:08:00.915Z,100049.84
2023-02-23T10:10:28.038Z,100048.75
2023-02-23T10:12:54.545Z,100050.16
2023-02-23T10:15:20.876Z,100051.59
2023-02-23T10:17:47.405Z,100049.03
2023-02-23T10:20:13.784Z,100047.69
2023-02-23T10:22:40.897Z,100039.75
2023-02-23T10:25:07.391Z,100046.75
2023-02-23T10:27:33.722Z,100041.38
2023-02-23T10:30:01.555Z,100032.81
2023-02-23T10:32:28.006Z,100041.44
2023-02-23T10:34:54.461Z,100035.84
2023-02-23T10:37:20.949Z,100030.28
2023-02-23T10:39:49.973Z,100035.22
2023-02-23T10:42:16.321Z,100024.63
2023-02-23T10:44:42.614Z,100030.03
2023-02-23T10:47:08.957Z,100032.69
2023-02-23T10:49:35.358Z,100030.75
2023-02-23T10:52:03.147Z,100031.62
2023-02-23T10:54:29.540Z,100024.50
2023-02-23T10:56:55.875Z,100021.03
2023-02-23T10:59:22.219Z,100024.03
2023-02-23T11:02:01.485Z,100011.25
2023-02-23T11:04:28.890Z,100023.34
2023-02-23T11:06:55.221Z,100013.47
2023-02-23T11:09:24.782Z,100005.63
2023-02-23T11:11:53.409Z,100009.41
2023-02-23T11:14:19.917Z,100000.19
2023-02-23T11:16:46.276Z,100001.97
2023-02-23T11:19:12.640Z,100001.34
2023-02-23T11:21:39.989Z,99988.41
2023-02-23T11:24:06.430Z,99997.16
2023-02-23T11:26:32.868Z,99983.97
2023-02-23T11:28:59.271Z,99983.56
2023-02-23T11:31:25.690Z,99979.06
2023-02-23T11:33:52.058Z,99970.47
2023-02-23T11:36:18.473Z,99976.69
2023-02-23T11:38:44.769Z,99968.84
2023-02-23T11:41:12.083Z,99971.63
2023-02-23T11:43:38.401Z,99973.44
2023-02-23T11:46:04.818Z,99967.25
2023-02-23T11:48:31.176Z,99960.66
2023-02-23T11:50:57.528Z,99953.16
2023-02-23T11:53:24.751Z,99952.56
2023-02-23T11:55:51.460Z,99944.91
2023-02-23T11:58:17.788Z,99947.13
2023-02-23T12:00:44.133Z,99949.72
2023-02-23T12:03:10.598Z,99949.75
2023-02-23T12:05:36.989Z,99951.31
2023-02-23T12:08:03.322Z,99951.53
2023-02-23T12:10:29.730Z,99949.84
2023-02-23T12:12:56.091Z,99937.34
2023-02-23T12:15:22.454Z,99944.94
2023-02-23T12:17:48.770Z,99945.19
2023-02-23T12:20:15.601Z,99940.16
2023-02-23T12:22:42.332Z,99937.06
2023-02-23T12:25:08.664Z,99933.19
2023-02-23T12:27:34.998Z,99936.12
2023-02-23T12:30:01.414Z,99930.69
2023-02-23T12:32:27.933Z,99926.28
2023-02-23T12:34:54.326Z,99931.31
2023-02-23T12:37:20.632Z,99920.81
2023-02-23T12:39:46.990Z,99923.19
2023-02-23T12:42:13.383Z,99927.72
2023-02-23T12:44:39.746Z,99913.84
2023-02-23T12:47:06.085Z,99910.44
2023-02-23T12:49:32.409Z,99908.16
2023-02-23T12:51:58.726Z,99912.78
2023-02-23T12:54:25.190Z,99916.47
2023-02-23T12:56:51.584Z,99907.81
2023-02-23T12:59:17.928Z,99909.22
2023-02-23T13:01:44.308Z,99907.25
2023-02-23T13:04:10.827Z,99900.22
2023-02-23T13:06:37.188Z,99895.97
2023-02-23T13:09:03.513Z,99898.53
2023-02-23T13:11:30.287Z,99891.63
2023-02-23T13:13:56.997Z,99893.00
2023-02-23T13:16:23.347Z,99892.69
2023-02-23T13:18:50.044Z,99897.13
2023-02-23T13:21:16.408Z,99891.22
2023-02-23T13:23:43.037Z,99896.00
2023-02-23T13:26:10.948Z,99902.87
2023-02-23T13:28:37.318Z,99900.59
2023-02-23T13:31:05.856Z,99882.19
2023-02-23T13:33:43.569Z,99896.25
2023-02-23T13:36:12.990Z,99898.31
2023-02-23T13:38:40.132Z,99889.78
2023-02-23T13:41:06.524Z,99894.13
2023-02-23T13:43:32.844Z,99897.75
2023-02-23T13:45:59.183Z,99889.66
2023-02-23T13:48:25.562Z,99893.63
2023-02-23T13:50:51.888Z,99886.66
2023-02-23T13:53:18.221Z,99891.44
2023-02-23T13:55:49.913Z,99889.31
2023-02-23T13:58:16.486Z,99881.53
2023-02-23T14:00:42.858Z,99889.44
2023-02-23T14:03:09.324Z,99888.47
2023-02-23T14:05:35.726Z,99889.19
2023-02-23T14:08:02.523Z,99889.25
2023-02-23T14:10:28.851Z,99883.25
2023-02-23T14:12:55.165Z,99882.22
2023-02-23T14:15:21.528Z,99883.97
2023-02-23T14:17:50.692Z,99886.78
2023-02-23T14:20:29.272Z,99882.81
2023-02-23T14:22:57.045Z,99878.72
2023-02-23T14:25:23.423Z,99877.28
2023-02-23T14:27:49.830Z,99880.38
2023-02-23T14:30:16.188Z,99879.25
2023-02-23T14:32:42.647Z,99873.66
2023-02-23T14:35:09.032Z,99874.88
2023-02-23T14:37:35.407Z,99876.16
2023-02-23T14:40:01.812Z,99880.03
2023-02-23T14:42:28.254Z,99886.47
2023-02-23T14:44:54.651Z,99883.66
2023-02-23T14:47:21.095Z,99883.41
2023-02-23T14:49:47.413Z,99882.44
2023-02-23T14:52:13.774Z,99876.84
2023-02-23T14:54:40.225Z,99876.41
2023-02-23T14:57:06.611Z,99883.41
2023-02-23T14:59:32.948Z,99886.50
2023-02-23T15:01:59.349Z,99887.84
2023-02-23T15:04:27.246Z,99880.97
2023-02-23T15:06:53.662Z,99880.88
2023-02-23T15:09:20.056Z,99885.56
2023-02-23T15:11:48.725Z,99887.53
2023-02-23T15:14:26.999Z,99887.88
2023-02-23T15:16:54.108Z,99892.47
2023-02-23T15:19:29.577Z,99894.81
2023-02-23T15:21:55.923Z,99891.16
2023-02-23T15:24:24.579Z,99886.63
2023-02-23T15:26:50.987Z,99888.16
2023-02-23T15:29:17.345Z,99888.94
2023-02-23T15:31:53.358Z,99890.34
2023-02-23T15:34:20.150Z,99890.62
2023-02-23T15:36:47.410Z,99890.34
2023-02-23T15:39:13.786Z,99886.78
2023-02-23T15:41:42.676Z,99884.22
2023-02-23T15:44:09.961Z,99882.75
2023-02-23T15:46:37.720Z,99885.22
2023-02-23T15:49:05.446Z,99876.44
2023-02-23T15:51:32.117Z,99887.63
2023-02-23T15:53:58.488Z,99887.84
2023-02-23T15:56:24.868Z,99882.13
2023-02-23T15:58:57.008Z,99889.06
2023-02-23T16:01:25.029Z,99887.56
2023-02-23T16:03:51.438Z,99894.03
2023-02-23T16:06:17.810Z,99896.41
2023-02-23T16:08:44.154Z,99888.81
2023-02-23T16:11:12.069Z,99896.22
2023-02-23T16:13:38.429Z,99899.50
2023-02-23T16:16:06.078Z,99899.50
2023-02-23T16:18:32.470Z,99894.00
2023-02-23T16:20:58.861Z,99891.06
2023-02-23T16:23:34.047Z,99899.25
2023-02-23T16:26:01.660Z,99895.37
2023-02-23T16:28:28.070Z,99897.91
2023-02-23T16:30:57.312Z,99896.31
2023-02-23T16:33:23.722Z,99896.91
2023-02-23T16:35:50.164Z,99891.69
2023-02-23T16:38:16.562Z,99895.06
2023-02-23T16:40:42.913Z,99893.63
2023-02-23T16:43:09.272Z,99893.75
2023-02-23T16:45:35.798Z,99899.06
2023-02-23T16:48:03.483Z,99889.22
2023-02-23T16:50:30.298Z,99887.41
2023-02-23T16:52:56.622Z,99896.00
2023-02-23T16:55:26.155Z,99893.28
2023-02-23T16:57:52.704Z,99887.50
2023-02-23T17:00:20.645Z,99891.47
2023-02-23T17:02:46.965Z,99896.00
2023-02-23T17:05:19.048Z,99892.28
2023-02-23T17:07:45.408Z,99892.50
2023-02-23T17:10:11.790Z,99896.44
2023-02-23T17:12:38.100Z,99896.44
2023-02-23T17:15:04.459Z,99899.78
2023-02-23T17:17:31.517Z,99901.28
2023-02-23T17:19:57.847Z,99903.09
2023-02-23T17:22:24.149Z,99901.59
2023-02-23T17:24:53.879Z,99905.91
2023-02-23T17:27:20.199Z,99905.09
2023-02-23T17:29:46.547Z,99902.41
2023-02-23T17:32:13.014Z,99908.97
2023-02-23T17:34:39.360Z,99907.25
2023-02-23T17:37:07.788Z,99908.31
2023-02-23T17:39:34.398Z,99910.69
2023-02-23T17:42:00.741Z,99916.63
2023-02-23T17:44:27.091Z,99908.03
2023-02-23T17:46:53.424Z,99913.09
2023-02-23T17:49:19.858Z,99914.28
2023-02-23T17:51:46.198Z,99905.25
2023-02-23T17:54:12.902Z,99914.12
2023-02-23T17:56:39.420Z,99913.16
2023-02-23T17:59:05.879Z,99910.94
2023-02-23T18:01:32.280Z,99903.00
2023-02-23T18:04:00.253Z,99908.22
2023-02-23T18:06:26.676Z,99907.91
2023-02-23T18:08:53.001Z,99905.94
2023-02-23T18:11:19.713Z,99903.50
2023-02-23T18:13:47.884Z,99912.84
2023-02-23T18:16:14.631Z,99912.03
2023-02-23T18:18:41.092Z,99905.66
2023-02-23T18:21:07.408Z,99908.28
2023-02-23T18:23:36.756Z,99902.31
2023-02-23T18:26:03.350Z,99893.81
2023-02-23T18:28:30.078Z,99893.41
2023-02-23T18:30:57.500Z,99895.94
2023-02-23T18:33:23.899Z,99899.03
2023-02-23T18:35:50.210Z,99900.00
2023-02-23T18:38:16.593Z,99899.41
2023-02-23T18:40:43.082Z,99896.97
2023-02-23T18:43:09.592Z,99896.34
2023-02-23T18:45:36.032Z,99890.62
2023-02-23T18:48:02.570Z,99897.28
2023-02-23T18:50:30.934Z,99894.72
2023-02-23T18:52:59.105Z,99903.56
2023-02-23T18:55:25.620Z,99899.94
2023-02-23T18:57:52.867Z,99900.50
2023-02-23T19:00:19.310Z,99891.09
2023-02-23T19:02:48.866Z,99902.81
2023-02-23T19:05:15.292Z,99909.25
2023-02-23T19:07:41.642Z,99904.44
2023-02-23T19:10:09.251Z,99905.06
2023-02-23T19:12:35.610Z,99895.06
2023-02-23T19:15:02.900Z,99895.88
2023-02-23T19:17:29.243Z,99899.38
2023-02-23T19:19:56.179Z,99893.69
2023-02-23T19:22:22.519Z,99896.81
2023-02-23T19:24:48.884Z,99891.47
2023-02-23T19:27:15.894Z,99892.97
2023-02-23T19:29:42.223Z,99895.56
2023-02-23T19:32:09.554Z,99890.19
2023-02-23T19:34:36.231Z,99891.72
2023-02-23T19:37:02.554Z,99889.50
2023-02-23T19:39:30.051Z,99899.16
2023-02-23T19:41:56.414Z,99888.00
2023-02-23T19:44:22.768Z,99891.69
2023-02-23T19:46:49.110Z,99887.13
2023-02-23T19:49:15.431Z,99887.37
2023-02-23T19:51:41.808Z,99884.94
2023-02-23T19:54:08.205Z,99885.66
2023-02-23T19:56:34.602Z,99883.78
2023-02-23T19:59:00.952Z,99882.59
2023-02-23T20:01:30.437Z,99886.13
2023-02-23T20:03:57.355Z,99881.22
2023-02-23T20:06:23.865Z,99882.66
2023-02-23T20:08:52.714Z,99877.53
2023-02-23T20:11:19.534Z,99878.47
2023-02-23T20:13:46.522Z,99874.84
2023-02-23T20:16:12.962Z,99878.69
2023-02-23T20:18:39.881Z,99871.03
2023-02-23T20:21:07.787Z,99872.88
2023-02-23T20:23:35.739Z,99870.66
2023-02-23T20:26:02.050Z,99874.16
2023-02-23T20:28:28.359Z,99867.75
2023-02-23T20:30:54.730Z,99873.94
2023-02-23T20:33:21.070Z,99874.62
2023-02-23T20:35:47.492Z,99865.09
2023-02-23T20:38:15.454Z,99865.44
2023-02-23T20:40:41.799Z,99866.38
2023-02-23T20:43:08.130Z,99860.00
2023-02-23T20:45:34.470Z,99849.06
2023-02-23T20:48:00.924Z,99854.41
2023-02-23T20:50:29.014Z,99850.91
2023-02-23T20:52:55.472Z,99846.59
2023-02-23T20:55:26.433Z,99848.34
2023-02-23T20:57:52.766Z,99839.91
2023-02-23T21:00:29.519Z,99842.69
2023-02-23T21:02:57.748Z,99847.56
2023-02-23T21:05:24.313Z,99837.72
2023-02-23T21:07:50.665Z,99837.22
2023-02-23T21:10:16.999Z,99840.03
2023-02-23T21:12:43.412Z,99832.09
2023-02-23T21:15:09.714Z,99834.09
2023-02-23T21:17:39.949Z,99833.72
2023-02-23T21:20:06.822Z,99832.59
2023-02-23T21:22:33.169Z,99828.88
2023-02-23T21:25:00.819Z,99831.06
2023-02-23T21:27:27.193Z,99830.59
2023-02-23T21:29:55.452Z,99830.94
2023-02-23T21:32:21.923Z,99831.97
2023-02-23T21:34:48.290Z,99825.13
2023-02-23T21:37:14.599Z,99832.94
2023-02-23T21:39:41.396Z,99823.75
2023-02-23T21:42:07.710Z,99825.34
2023-02-23T21:44:34.096Z,99823.81
2023-02-23T21:47:00.708Z,99821.28
2023-02-23T21:49:27.002Z,99821.75
2023-02-23T21:51:54.126Z,99810.72
2023-02-23T21:54:21.577Z,99815.38
2023-02-23T21:56:47.914Z,99810.63
2023-02-23T21:59:14.320Z,99811.56
2023-02-23T22:01:42.993Z,99812.84
2023-02-23T22:04:09.416Z,99803.56
2023-02-23T22:06:36.189Z,99807.62
2023-02-23T22:09:03.295Z,99815.06
2023-02-23T22:11:29.612Z,99810.53
2023-02-23T22:13:59.081Z,99814.12
2023-02-23T22:16:25.414Z,99815.53
2023-02-23T22:18:51.825Z,99815.28
2023-02-23T22:21:19.258Z,99809.13
2023-02-23T22:23:48.037Z,99813.19
2023-02-23T22:26:14.379Z,99807.75
2023-02-23T22:28:40.706Z,99813.91
2023-02-23T22:31:07.462Z,99810.50
2023-02-23T22:33:33.863Z,99810.28
2023-02-23T22:36:00.212Z,99809.69
2023-02-23T22:38:26.528Z,99809.34
2023-02-23T22:40:52.873Z,99806.16
2023-02-23T22:43:22.106Z,99806.38
2023-02-23T22:45:48.464Z,99804.09
2023-02-23T22:48:14.783Z,99805.78
2023-02-23T22:50:42.291Z,99808.28
2023-02-23T22:53:08.602Z,99803.87
2023-02-23T22:55:35.151Z,99800.38
2023-02-23T22:58:01.542Z,99803.63
2023-02-23T23:00:27.978Z,99797.59
2023-02-23T23:02:54.390Z,99803.28
2023-02-23T23:05:21.761Z,99807.00
2023-02-23T23:07:48.106Z,99804.91
2023-02-23T23:10:14.477Z,99797.25
2023-02-23T23:12:40.813Z,99791.97
2023-02-23T23:15:13.503Z,99782.84
2023-02-23T23:17:39.842Z,99788.28
2023-02-23T23:20:11.943Z,99782.03
2023-02-23T23:22:38.703Z,99789.22
2023-02-23T23:25:11.232Z,99779.34
2023-02-23T23:27:41.449Z,99777.78
2023-02-23T23:30:07.928Z,99776.72
2023-02-23T23:32:34.288Z,99780.19
2023-02-23T23:35:01.615Z,99782.69
2023-02-23T23:37:29.242Z,99790.03
2023-02-23T23:39:59.400Z,99784.09
2023-02-23T23:42:25.906Z,99779.78
2023-02-23T23:44:52.214Z,99783.72
2023-02-23T23:47:18.838Z,99785.34
2023-02-23T23:49:45.442Z,99782.09
2023-02-23T23:52:17.898Z,99786.69
2023-02-23T23:54:44.750Z,99779.13
2023-02-23T23:57:11.862Z,99769.59
2023-02-23T23:59:45.978Z,99771.53
